createdAt,value
2018-07-17T00:00:01.038Z,20.00
2018-07-17T00:02:29.254Z,20.00
2018-07-17T00:04:57.449Z,20.00
2018-07-17T00:07:25.673Z,20.00
2018-07-17T00:09:54.070Z,19.90
2018-07-17T00:12:22.265Z,19.90
2018-07-17T00:14:50.483Z,19.90
2018-07-17T00:19:46.921Z,19.70
2018-07-17T00:24:43.591Z,19.70
2018-07-17T00:27:11.798Z,19.70
2018-07-17T00:29:40.004Z,19.70
2018-07-17T00:32:08.246Z,19.70
2018-07-17T00:34:36.443Z,19.60
2018-07-17T00:37:04.629Z,19.60
2018-07-17T00:39:33.118Z,19.40
2018-07-17T00:42:01.624Z,19.40
2018-07-17T00:44:30.118Z,19.30
2018-07-17T00:49:26.317Z,19.20
2018-07-17T00:51:54.664Z,19.10
2018-07-17T00:54:23.056Z,19.00
2018-07-17T00:56:51.285Z,18.90
2018-07-17T00:59:19.482Z,18.90
2018-07-17T01:01:53.225Z,18.90
2018-07-17T01:04:26.841Z,18.90
2018-07-17T01:07:00.402Z,19.00
2018-07-17T01:09:33.914Z,19.00
2018-07-17T01:12:07.414Z,18.90
2018-07-17T01:14:53.305Z,18.80
2018-07-17T01:17:22.178Z,18.80
2018-07-17T01:19:50.394Z,18.70
2018-07-17T01:22:18.878Z,18.60
2018-07-17T01:24:47.077Z,18.50
2018-07-17T01:27:15.302Z,18.50
2018-07-17T01:29:43.523Z,18.50
2018-07-17T01:32:11.760Z,18.50
2018-07-17T01:34:39.990Z,18.50
2018-07-17T01:37:08.202Z,18.40
2018-07-17T01:39:36.387Z,18.20
2018-07-17T01:42:04.610Z,18.10
2018-07-17T01:44:33.033Z,18.10
2018-07-17T01:47:01.305Z,18.00
2018-07-17T01:49:29.521Z,18.00
2018-07-17T01:51:57.772Z,18.10
2018-07-17T01:54:26.016Z,18.00
2018-07-17T01:56:54.202Z,17.90
2018-07-17T01:59:22.397Z,17.80
2018-07-17T02:01:50.618Z,17.70
2018-07-17T02:04:18.841Z,17.70
2018-07-17T02:06:47.046Z,17.70
2018-07-17T02:09:15.285Z,17.70
2018-07-17T02:11:43.484Z,17.70
2018-07-17T02:14:11.690Z,17.70
2018-07-17T02:16:39.893Z,17.70
2018-07-17T02:19:08.097Z,17.70
2018-07-17T02:21:36.319Z,17.70
2018-07-17T02:24:04.517Z,17.60
2018-07-17T02:26:33.018Z,17.60
2018-07-17T02:29:01.214Z,17.50
2018-07-17T02:31:29.445Z,17.40
2018-07-17T02:33:57.845Z,17.40
2018-07-17T02:36:26.073Z,17.40
2018-07-17T02:38:54.278Z,17.30
2018-07-17T02:41:22.494Z,17.30
2018-07-17T02:43:50.718Z,17.30
2018-07-17T02:46:19.006Z,17.20
2018-07-17T02:48:47.485Z,17.20
2018-07-17T02:51:15.728Z,17.20
2018-07-17T02:53:43.935Z,17.20
2018-07-17T02:56:12.118Z,17.20
2018-07-17T02:58:40.324Z,17.20
2018-07-17T03:01:08.538Z,17.30
2018-07-17T03:03:36.763Z,17.30
2018-07-17T03:06:05.025Z,17.30
2018-07-17T03:09:36.165Z,17.30
2018-07-17T03:12:04.350Z,17.20
2018-07-17T03:14:32.564Z,17.20
2018-07-17T03:17:00.790Z,17.20
2018-07-17T03:19:28.992Z,17.30
2018-07-17T03:21:57.173Z,17.30
2018-07-17T03:24:25.435Z,17.30
2018-07-17T03:26:53.607Z,17.30
2018-07-17T03:29:22.182Z,17.30
2018-07-17T03:31:50.383Z,17.30
2018-07-17T03:34:18.611Z,17.20
2018-07-17T03:36:46.813Z,17.30
2018-07-17T03:39:15.019Z,17.20
2018-07-17T03:41:43.235Z,17.30
2018-07-17T03:44:11.445Z,17.30
2018-07-17T03:46:39.661Z,17.30
2018-07-17T03:49:07.922Z,17.30
2018-07-17T03:51:36.274Z,17.40
2018-07-17T03:54:04.510Z,17.40
2018-07-17T03:56:32.722Z,17.50
2018-07-17T03:59:00.905Z,17.50
2018-07-17T04:01:29.120Z,17.50
2018-07-17T04:03:57.335Z,17.50
2018-07-17T04:06:25.529Z,17.50
2018-07-17T04:08:53.759Z,17.50
2018-07-17T04:11:21.956Z,17.70
2018-07-17T04:13:50.447Z,17.70
2018-07-17T04:16:18.642Z,17.70
2018-07-17T04:18:46.893Z,17.70
2018-07-17T04:21:15.112Z,17.80
2018-07-17T04:23:43.346Z,17.80
2018-07-17T04:26:11.573Z,17.80
2018-07-17T04:28:39.780Z,17.90
2018-07-17T04:31:08.056Z,18.00
2018-07-17T04:33:36.216Z,18.00
2018-07-17T04:36:05.092Z,17.90
2018-07-17T04:38:33.301Z,17.90
2018-07-17T04:41:01.512Z,18.00
2018-07-17T04:43:29.788Z,18.00
2018-07-17T04:45:57.979Z,18.10
2018-07-17T04:48:26.190Z,18.10
2018-07-17T04:50:54.386Z,18.20
2018-07-17T04:53:22.635Z,18.20
2018-07-17T04:55:50.837Z,18.20
2018-07-17T04:58:19.127Z,18.10
2018-07-17T05:00:47.360Z,18.10
2018-07-17T05:03:15.565Z,18.10
2018-07-17T05:05:43.767Z,18.20
2018-07-17T05:08:12.007Z,18.20
2018-07-17T05:10:40.241Z,18.20
2018-07-17T05:13:08.482Z,18.30
2018-07-17T05:15:36.680Z,18.30
2018-07-17T05:18:04.933Z,18.30
2018-07-17T05:20:33.285Z,18.40
2018-07-17T05:23:01.519Z,18.50
2018-07-17T05:25:29.873Z,18.60
2018-07-17T05:27:58.098Z,18.70
2018-07-17T05:30:26.302Z,18.80
2018-07-17T05:32:54.569Z,18.90
2018-07-17T05:35:22.871Z,19.00
2018-07-17T05:37:51.042Z,19.10
2018-07-17T05:40:19.810Z,19.20
2018-07-17T05:42:48.082Z,19.20
2018-07-17T05:45:16.433Z,19.30
2018-07-17T05:47:44.641Z,19.50
2018-07-17T05:50:13.050Z,19.60
2018-07-17T05:52:41.451Z,19.60
2018-07-17T05:55:09.670Z,19.70
2018-07-17T05:57:37.926Z,19.80
2018-07-17T06:00:07.002Z,19.90
2018-07-17T06:02:35.289Z,19.90
2018-07-17T06:05:03.575Z,19.90
2018-07-17T06:07:31.761Z,20.00
2018-07-17T06:09:59.980Z,20.10
2018-07-17T06:12:28.192Z,20.20
2018-07-17T06:14:56.402Z,20.30
2018-07-17T06:17:24.675Z,20.30
2018-07-17T06:19:53.070Z,20.40
2018-07-17T06:22:21.307Z,20.40
2018-07-17T06:24:49.505Z,20.50
2018-07-17T06:27:17.977Z,20.50
2018-07-17T06:29:46.164Z,20.40
2018-07-17T06:32:14.382Z,20.50
2018-07-17T06:34:42.585Z,20.50
2018-07-17T06:37:10.822Z,20.40
2018-07-17T06:42:08.381Z,20.50
2018-07-17T06:44:36.617Z,20.70
2018-07-17T06:47:04.891Z,20.90
2018-07-17T06:49:33.394Z,21.10
2018-07-17T06:52:01.594Z,21.20
2018-07-17T06:54:29.778Z,21.30
2018-07-17T06:59:25.974Z,21.50
2018-07-17T07:01:54.189Z,21.50
2018-07-17T07:04:22.399Z,21.40
2018-07-17T07:06:50.768Z,21.40
2018-07-17T07:09:18.962Z,21.40
2018-07-17T07:11:47.249Z,21.30
2018-07-17T07:14:15.465Z,21.50
2018-07-17T07:16:43.674Z,21.70
2018-07-17T07:19:11.901Z,21.80
2018-07-17T07:21:40.104Z,21.90
2018-07-17T07:26:36.281Z,21.90
2018-07-17T07:29:04.558Z,22.00
2018-07-17T07:31:32.787Z,22.10
2018-07-17T07:34:01.209Z,22.20
2018-07-17T07:36:29.418Z,22.10
2018-07-17T07:38:57.666Z,22.10
2018-07-17T07:41:25.882Z,22.00
2018-07-17T07:43:54.094Z,22.10
2018-07-17T07:46:22.327Z,22.30
2018-07-17T07:48:50.565Z,22.50
2018-07-17T07:51:18.797Z,22.60
2018-07-17T07:56:15.031Z,22.90
2018-07-17T07:58:43.371Z,23.00
2018-07-17T08:01:11.636Z,22.90
2018-07-17T08:03:39.933Z,23.10
2018-07-17T08:06:08.374Z,23.10
2018-07-17T08:08:36.730Z,23.10
2018-07-17T08:11:04.993Z,23.10
2018-07-17T08:13:33.287Z,23.10
2018-07-17T08:18:29.862Z,23.50
2018-07-17T08:20:58.266Z,23.70
2018-07-17T08:23:26.549Z,23.90
2018-07-17T08:25:54.809Z,24.00
2018-07-17T08:28:23.086Z,24.20
2018-07-17T08:30:51.401Z,24.40
2018-07-17T08:33:19.761Z,24.50
2018-07-17T08:35:48.200Z,24.50
2018-07-17T08:38:16.586Z,24.60
2018-07-17T08:40:44.961Z,24.80
2018-07-17T08:43:13.461Z,24.70
2018-07-17T08:45:41.841Z,24.70
2018-07-17T08:48:10.155Z,24.90
2018-07-17T08:50:38.470Z,24.90
2018-07-17T08:53:07.337Z,24.90
2018-07-17T08:55:36.110Z,24.70
2018-07-17T08:58:04.900Z,24.70
2018-07-17T09:00:33.194Z,24.70
2018-07-17T09:03:01.702Z,24.90
2018-07-17T09:05:29.989Z,24.90
2018-07-17T09:07:58.293Z,25.00
2018-07-17T09:10:27.206Z,24.90
2018-07-17T09:12:55.463Z,24.90
2018-07-17T09:15:23.713Z,24.80
2018-07-17T09:17:52.276Z,24.80
2018-07-17T09:20:20.557Z,24.90
2018-07-17T09:22:49.390Z,25.10
2018-07-17T09:25:17.632Z,25.30
2018-07-17T09:27:45.920Z,25.30
2018-07-17T09:30:14.219Z,25.30
2018-07-17T09:32:42.567Z,25.40
2018-07-17T09:35:11.239Z,25.40
2018-07-17T09:37:39.546Z,25.50
2018-07-17T09:40:08.483Z,25.50
2018-07-17T09:42:36.785Z,25.60
2018-07-17T09:45:05.367Z,25.70
2018-07-17T09:47:33.620Z,25.80
2018-07-17T09:50:01.935Z,25.90
2018-07-17T09:52:30.240Z,25.90
2018-07-17T09:54:58.468Z,25.90
2018-07-17T09:57:26.734Z,25.80
2018-07-17T09:59:54.990Z,25.70
2018-07-17T10:02:27.422Z,25.80
2018-07-17T10:04:55.984Z,25.80
2018-07-17T10:07:24.222Z,25.80
2018-07-17T10:12:21.399Z,25.90
2018-07-17T10:14:49.729Z,26.00
2018-07-17T10:17:18.008Z,26.20
2018-07-17T10:19:46.768Z,26.30
2018-07-17T10:22:15.370Z,26.30
2018-07-17T10:24:43.569Z,26.30
2018-07-17T10:27:11.923Z,26.50
2018-07-17T10:29:40.346Z,26.70
2018-07-17T10:32:08.734Z,26.90
2018-07-17T10:37:05.273Z,26.70
2018-07-17T10:39:33.529Z,26.60
2018-07-17T10:42:01.809Z,26.60
2018-07-17T10:44:30.258Z,26.60
2018-07-17T10:46:58.490Z,26.70
2018-07-17T10:49:26.745Z,26.90
2018-07-17T10:51:55.197Z,27.20
2018-07-17T10:54:23.477Z,27.30
2018-07-17T10:56:51.735Z,27.30
2018-07-17T10:59:20.138Z,27.40
2018-07-17T11:01:48.358Z,27.60
2018-07-17T11:04:16.630Z,27.80
2018-07-17T11:09:13.019Z,28.30
2018-07-17T11:11:41.403Z,28.70
2018-07-17T11:14:10.567Z,29.10
2018-07-17T11:16:38.869Z,29.50
2018-07-17T11:19:07.144Z,30.00
2018-07-17T11:21:35.393Z,30.30
2018-07-17T11:24:04.513Z,30.70
2018-07-17T11:26:32.776Z,31.00
2018-07-17T11:29:01.070Z,31.10
2018-07-17T11:31:30.264Z,31.40
2018-07-17T11:33:58.551Z,32.00
2018-07-17T11:36:26.810Z,32.70
2018-07-17T11:38:55.038Z,33.50
2018-07-17T11:41:23.330Z,34.40
2018-07-17T11:43:51.582Z,35.50
2018-07-17T11:46:19.862Z,37.10
2018-07-17T11:48:48.414Z,38.40
2018-07-17T11:51:16.667Z,39.30
2018-07-17T11:53:45.237Z,40.00
2018-07-17T11:56:13.545Z,40.10
2018-07-17T11:58:42.138Z,39.80
2018-07-17T12:01:10.466Z,39.00
2018-07-17T12:03:38.904Z,37.90
2018-07-17T12:06:07.534Z,37.40
2018-07-17T12:08:37.461Z,38.40
2018-07-17T12:11:07.452Z,39.80
2018-07-17T12:13:35.779Z,41.40
2018-07-17T12:16:04.078Z,42.00
2018-07-17T12:18:32.363Z,42.90
2018-07-17T12:21:00.721Z,43.70
2018-07-17T12:23:29.002Z,44.00
2018-07-17T12:25:57.469Z,44.70
2018-07-17T12:28:25.961Z,45.40
2018-07-17T12:30:58.796Z,45.80
2018-07-17T12:35:55.146Z,44.90
2018-07-17T12:38:23.458Z,44.80
2018-07-17T12:40:51.947Z,44.70
2018-07-17T12:43:21.617Z,44.00
2018-07-17T12:48:18.368Z,40.60
2018-07-17T12:53:14.661Z,37.40
2018-07-17T12:55:43.234Z,36.50
2018-07-17T12:58:11.500Z,35.20
2018-07-17T13:00:39.742Z,33.90
2018-07-17T13:03:08.260Z,33.00
2018-07-17T13:05:36.839Z,32.10
2018-07-17T13:08:05.183Z,31.20
2018-07-17T13:10:33.534Z,30.80
2018-07-17T13:13:02.100Z,30.50
2018-07-17T13:15:30.435Z,30.30
2018-07-17T13:17:58.618Z,30.30
2018-07-17T13:22:54.853Z,31.10
2018-07-17T13:25:23.131Z,32.10
2018-07-17T13:27:51.934Z,32.90
2018-07-17T13:30:20.145Z,33.80
2018-07-17T13:32:48.387Z,34.80
2018-07-17T13:35:16.688Z,35.70
2018-07-17T13:37:44.909Z,37.10
2018-07-17T13:40:13.142Z,38.00
2018-07-17T13:42:41.386Z,39.30
2018-07-17T13:45:09.681Z,39.60
2018-07-17T13:47:38.019Z,39.00
2018-07-17T13:50:06.475Z,39.00
2018-07-17T13:52:34.685Z,38.90
2018-07-17T13:57:30.910Z,38.50
2018-07-17T13:59:59.814Z,40.10
2018-07-17T14:02:28.090Z,40.70
2018-07-17T14:04:56.465Z,39.70
2018-07-17T14:07:24.734Z,38.90
2018-07-17T14:09:53.223Z,38.70
2018-07-17T14:12:23.187Z,38.30
2018-07-17T14:14:52.066Z,38.30
2018-07-17T14:17:20.419Z,37.90
2018-07-17T14:19:48.657Z,37.60
2018-07-17T14:22:16.963Z,37.60
2018-07-17T14:24:45.210Z,37.40
2018-07-17T14:27:13.435Z,37.10
2018-07-17T14:29:41.689Z,36.40
2018-07-17T14:32:10.000Z,35.50
2018-07-17T14:34:38.427Z,34.50
2018-07-17T14:37:06.773Z,32.90
2018-07-17T14:39:35.055Z,31.90
2018-07-17T14:42:03.264Z,30.40
2018-07-17T14:44:31.771Z,29.80
2018-07-17T14:47:00.024Z,29.10
2018-07-17T14:49:28.270Z,28.60
2018-07-17T14:51:56.498Z,28.30
2018-07-17T14:54:24.778Z,27.90
2018-07-17T14:56:53.283Z,27.50
2018-07-17T14:59:22.033Z,27.10
2018-07-17T15:01:50.341Z,26.70
2018-07-17T15:04:18.624Z,26.30
2018-07-17T15:06:46.867Z,25.90
2018-07-17T15:09:15.078Z,25.60
2018-07-17T15:11:43.429Z,25.40
2018-07-17T15:14:11.717Z,24.50
2018-07-17T15:16:39.951Z,23.30
2018-07-17T15:19:08.474Z,21.80
2018-07-17T15:21:36.693Z,20.70
2018-07-17T15:24:05.618Z,20.10
2018-07-17T15:29:02.031Z,18.70
2018-07-17T15:31:30.250Z,18.40
2018-07-17T15:33:58.568Z,18.70
2018-07-17T15:36:26.838Z,19.10
2018-07-17T15:38:55.300Z,19.80
2018-07-17T15:41:23.702Z,20.50
2018-07-17T15:43:51.958Z,20.90
2018-07-17T15:46:20.287Z,21.30
2018-07-17T15:48:48.534Z,22.00
2018-07-17T15:51:16.765Z,25.10
2018-07-17T15:53:44.981Z,29.00
2018-07-17T15:56:13.181Z,32.50
2018-07-17T15:58:41.381Z,35.10
2018-07-17T16:01:10.095Z,36.90
2018-07-17T16:03:38.546Z,38.40
2018-07-17T16:06:06.818Z,39.50
2018-07-17T16:08:35.002Z,40.20
2018-07-17T16:11:03.358Z,40.80
2018-07-17T16:13:31.694Z,41.10
2018-07-17T16:15:59.963Z,41.50
2018-07-17T16:18:28.697Z,41.10
2018-07-17T16:23:24.966Z,40.10
2018-07-17T16:25:53.329Z,39.80
2018-07-17T16:28:21.648Z,39.40
2018-07-17T16:30:49.881Z,39.70
2018-07-17T16:33:18.293Z,39.80
2018-07-17T16:35:46.502Z,38.30
2018-07-17T16:38:15.072Z,35.30
2018-07-17T16:40:43.273Z,33.10
2018-07-17T16:43:11.458Z,31.30
2018-07-17T16:45:39.704Z,30.40
2018-07-17T16:48:08.149Z,30.60
2018-07-17T16:50:36.302Z,32.30
2018-07-17T16:53:04.612Z,34.30
2018-07-17T16:55:32.889Z,35.70
2018-07-17T16:58:01.093Z,35.40
2018-07-17T17:00:29.340Z,35.00
2018-07-17T17:02:57.557Z,33.00
2018-07-17T17:05:25.761Z,31.50
2018-07-17T17:07:54.210Z,30.20
2018-07-17T17:10:22.435Z,29.10
2018-07-17T17:12:50.657Z,27.70
2018-07-17T17:15:18.896Z,26.90
2018-07-17T17:17:47.114Z,26.20
2018-07-17T17:20:15.360Z,25.70
2018-07-17T17:22:43.585Z,25.20
2018-07-17T17:25:11.802Z,24.90
2018-07-17T17:27:40.071Z,24.60
2018-07-17T17:30:08.404Z,24.30
2018-07-17T17:32:36.623Z,24.20
2018-07-17T17:35:04.962Z,24.10
2018-07-17T17:37:33.197Z,23.90
2018-07-17T17:40:02.321Z,23.70
2018-07-17T17:42:30.538Z,23.30
2018-07-17T17:44:58.762Z,23.00
2018-07-17T17:47:26.962Z,22.60
2018-07-17T17:49:55.209Z,21.60
2018-07-17T17:52:23.462Z,20.60
2018-07-17T17:54:52.618Z,19.90
2018-07-17T17:57:20.838Z,19.40
2018-07-17T17:59:49.066Z,18.80
2018-07-17T18:02:17.274Z,18.50
2018-07-17T18:04:45.546Z,18.10
2018-07-17T18:07:14.161Z,18.00
2018-07-17T18:09:42.703Z,18.00
2018-07-17T18:12:11.137Z,18.00
2018-07-17T18:14:39.530Z,18.00
2018-07-17T18:17:08.596Z,18.10
2018-07-17T18:19:36.969Z,18.10
2018-07-17T18:22:05.170Z,18.20
2018-07-17T18:27:01.759Z,18.30
2018-07-17T18:29:29.978Z,18.40
2018-07-17T18:31:58.241Z,18.60
2018-07-17T18:34:26.446Z,18.70
2018-07-17T18:39:24.695Z,18.80
2018-07-17T18:41:52.916Z,18.70
2018-07-17T18:44:21.359Z,18.70
2018-07-17T18:46:50.838Z,18.60
2018-07-17T18:49:19.052Z,18.70
2018-07-17T18:51:47.330Z,18.60
2018-07-17T18:54:15.571Z,18.60
2018-07-17T18:56:45.493Z,18.50
2018-07-17T18:59:14.649Z,18.40
2018-07-17T19:01:44.954Z,18.30
2018-07-17T19:04:13.145Z,18.10
2018-07-17T19:06:41.409Z,18.20
2018-07-17T19:09:10.223Z,18.10
2018-07-17T19:14:06.746Z,18.10
2018-07-17T19:16:35.862Z,18.10
2018-07-17T19:19:04.143Z,18.10
2018-07-17T19:21:32.755Z,18.00
2018-07-17T19:24:01.282Z,17.90
2018-07-17T19:26:29.983Z,18.00
2018-07-17T19:28:58.321Z,18.00
2018-07-17T19:31:26.553Z,18.10
2018-07-17T19:33:54.793Z,18.10
2018-07-17T19:36:23.080Z,18.10
2018-07-17T19:38:51.369Z,18.10
2018-07-17T19:43:48.510Z,18.20
2018-07-17T19:46:17.029Z,18.20
2018-07-17T19:48:45.239Z,18.30
2018-07-17T19:51:13.442Z,18.40
2018-07-17T19:53:41.689Z,18.50
2018-07-17T19:56:09.891Z,18.50
2018-07-17T19:58:38.098Z,18.50
2018-07-17T20:03:34.481Z,18.60
2018-07-17T20:06:03.142Z,18.60
2018-07-17T20:08:31.397Z,18.70
2018-07-17T20:10:59.539Z,18.60
2018-07-17T20:13:27.734Z,18.60
2018-07-17T20:15:55.961Z,18.60
2018-07-17T20:18:24.153Z,18.60
2018-07-17T20:20:52.418Z,18.70
2018-07-17T20:23:20.654Z,18.70
2018-07-17T20:28:17.156Z,18.70
2018-07-17T20:30:45.369Z,18.70
2018-07-17T20:33:13.582Z,18.60
2018-07-17T20:35:41.781Z,18.60
2018-07-17T20:38:09.986Z,18.60
2018-07-17T20:43:06.572Z,18.60
2018-07-17T20:45:35.167Z,18.70
2018-07-17T20:48:03.350Z,18.70
2018-07-17T20:50:32.544Z,18.70
2018-07-17T20:53:00.829Z,18.80
2018-07-17T20:55:28.945Z,18.80
2018-07-17T21:00:25.126Z,18.80
2018-07-17T21:02:53.341Z,18.90
2018-07-17T21:05:21.537Z,18.90
2018-07-17T21:10:17.705Z,18.90
2018-07-17T21:12:45.950Z,18.90
2018-07-17T21:15:14.207Z,18.90
2018-07-17T21:17:42.562Z,18.90
2018-07-17T21:20:10.778Z,18.90
2018-07-17T21:22:38.961Z,18.90
2018-07-17T21:27:35.118Z,19.00
2018-07-17T21:30:03.380Z,18.90
2018-07-17T21:32:31.598Z,19.00
2018-07-17T21:34:59.798Z,18.90
2018-07-17T21:37:28.301Z,18.90
2018-07-17T21:39:56.533Z,18.90
2018-07-17T21:42:24.713Z,18.90
2018-07-17T21:44:53.038Z,18.90
2018-07-17T21:47:21.518Z,19.00
2018-07-17T21:52:17.751Z,19.10
2018-07-17T21:54:46.106Z,19.10
2018-07-17T21:57:14.305Z,19.10
2018-07-17T21:59:42.538Z,19.10
2018-07-17T22:02:10.826Z,19.10
2018-07-17T22:04:39.027Z,19.10
2018-07-17T22:07:07.246Z,19.10
2018-07-17T22:09:35.455Z,19.00
2018-07-17T22:12:03.675Z,19.00
2018-07-17T22:14:31.883Z,19.00
2018-07-17T22:17:00.277Z,19.00
2018-07-17T22:19:28.462Z,18.90
2018-07-17T22:21:56.653Z,18.80
2018-07-17T22:24:24.842Z,18.80
2018-07-17T22:26:53.047Z,18.80
2018-07-17T22:29:21.241Z,18.80
2018-07-17T22:31:49.439Z,18.70
2018-07-17T22:34:17.713Z,18.60
2018-07-17T22:36:45.906Z,18.60
2018-07-17T22:39:14.182Z,18.60
2018-07-17T22:41:42.367Z,18.60
2018-07-17T22:44:10.549Z,18.60
2018-07-17T22:49:06.704Z,18.60
2018-07-17T22:54:03.126Z,18.60
2018-07-17T22:56:31.327Z,18.60
2018-07-17T22:58:59.525Z,18.60
2018-07-17T23:01:28.022Z,18.50
2018-07-17T23:03:56.265Z,18.50
2018-07-17T23:06:24.465Z,18.50
2018-07-17T23:08:52.681Z,18.50
2018-07-17T23:11:20.924Z,18.50
2018-07-17T23:13:49.149Z,18.50
2018-07-17T23:16:17.405Z,18.50
2018-07-17T23:18:46.046Z,18.40
2018-07-17T23:21:14.286Z,18.50
2018-07-17T23:23:42.538Z,18.50
2018-07-17T23:26:10.736Z,18.50
2018-07-17T23:28:38.939Z,18.40
2018-07-17T23:31:07.145Z,18.40
2018-07-17T23:33:35.399Z,18.40
2018-07-17T23:36:03.629Z,18.40
2018-07-17T23:38:31.845Z,18.40
2018-07-17T23:41:00.035Z,18.40
2018-07-17T23:43:28.246Z,18.40
2018-07-17T23:45:56.692Z,18.40
2018-07-17T23:48:24.873Z,18.50
2018-07-17T23:50:53.105Z,18.50
2018-07-17T23:53:21.309Z,18.60
2018-07-17T23:55:49.542Z,18.60
2018-07-17T23:58:17.766Z,18.60
